Hyndman, Pennsylvania
Current Conditions -  °F | °C
As of 3:49 PM on Tuesday 21 Oct 2014 (Local Time) from KCBE Reporting Station
Overcast Overcast  
Wind Chill: 54°   Ceiling: 1500
Heat Index: 54°   Visibility: 3mi
Dew Point: 52°   Wind: 8mph
Humidity: 94%   Direction: 270°W
Pressure: 29.92"   Gusts: NA
Location:  39.82°N, 78.72°W
Report Text: KCBE 211949Z AUTO 27007KT 3SM BKN015 OVC024 12/11 A2992 RMK AO1
Loading
Personal Weather Stations






























Interactive Weather Map
Tropical Storm Tracking
New forecast layout! Learn more

10-Day Weather Forecast

Advertisements
Track Severe Weather on mobile